Main page
METAR-TAF:

METAR-TAF

Airports :

Multan International Airport

Multan, Pakistan

latitude: 30-12-12N, longitude: 71-25-09E, elevation: 122 m

Current weather observation

The report was made 11 minutes ago, at 21:30 UTC
Wind 8 kt from the North
Temperature 13°C
Humidity 72%
Pressure 1015 hPa
Visibility: 4000 m
smoke

METAR: OPMT 202130Z 36008KT 4000 FU NSC 13/08 Q1015 NOSIG

Time: 02:41 (21:41 UTC)

Forecast

The report was made 5 hours and 36 minutes ago, at 16:05 UTC
Forecast valid from 20 at 18 UTC to 21 at 12 UTC
Wind 10 kt from the North
Visibility: 4000 m
Few clouds at a height of 4000 ft
Scattered clouds at a height of 12000 ft
smoke
Temporary
from 21 at 01 UTC to at UTC
Visibility: 2000 m
Scattered clouds at a height of 12000 ft
Low drifting dust

TAF: OPMT 201605Z 2018/2112 36010KT 4000 FU FEW040 SCT120 TN10/2101Z TX22/PROB30 TEMPO 2101/ 2015 020KT 2000 DRDU SCT120

Weather observations and forecasts of more than 4000 airports (METAR and TAF reports).

The available stations are represented by yellow and red dots on the map.

Hover mouse over dot to see the name of the station.

Then click to see weather observations and forecasts.

To change the map : click on the green buttons with a black cross to zoom in, on the green button with a dash to zoom out, or on the green arrows for adjacent maps.


METAR-TAF: